Time;durP1;ratioP1;P1;durP2;ratioP2;P2;SDS_P1;SDS_P2;PMS_P1;PMS_P2;Temp;Humidity;BMP_temperature;BMP_pressure;BME280_temperature;BME280_humidity;BME280_pressure;Samples;Min_cycle;Max_cycle;Signal;HPM_P1;HPM_P2
2022/03/31 00:01:35;;;;;;;2.45;1.60;;;19.50;50.10;;;;;;5083471;28;20113;-71
2022/03/31 00:04:00;;;;;;;5.03;1.85;;;19.50;50.10;;;;;;5084692;28;20055;-71
2022/03/31 00:06:26;;;;;;;3.42;1.70;;;19.50;50.10;;;;;;5083872;28;20097;-75
2022/03/31 00:08:53;;;;;;;3.83;1.80;;;19.50;50.10;;;;;;5083602;28;20051;-72
2022/03/31 00:11:19;;;;;;;2.75;1.58;;;19.50;50.00;;;;;;5082410;28;20044;-72
2022/03/31 00:13:45;;;;;;;3.35;1.80;;;19.50;50.00;;;;;;5083717;28;20062;-72
2022/03/31 00:16:11;;;;;;;3.33;1.90;;;19.50;49.90;;;;;;5100019;28;20051;-73
2022/03/31 00:18:37;;;;;;;3.42;1.70;;;19.50;49.90;;;;;;5084461;28;20044;-72
2022/03/31 00:34:32;;;;;;;2.70;1.35;;;19.50;49.90;;;;;;5083900;28;20557;-74
2022/03/31 00:36:58;;;;;;;1.75;1.30;;;19.50;49.90;;;;;;5070681;28;20052;-74
2022/03/31 00:39:29;;;;;;;3.17;1.27;;;19.40;50.00;;;;;;5105054;28;20123;-72
2022/03/31 00:41:56;;;;;;;3.65;1.73;;;19.50;50.00;;;;;;5066307;28;20511;-72
2022/03/31 00:44:22;;;;;;;2.65;1.48;;;19.50;50.00;;;;;;5088996;28;20279;-73
2022/03/31 00:46:53;;;;;;;3.10;1.33;;;19.40;50.10;;;;;;5087049;28;20042;-71
2022/03/31 00:49:20;;;;;;;2.47;1.42;;;19.50;50.10;;;;;;5087842;28;20127;-71
2022/03/31 00:51:47;;;;;;;2.90;1.27;;;19.50;50.00;;;;;;5089730;28;20056;-71
2022/03/31 00:54:15;;;;;;;3.00;1.27;;;19.40;50.00;;;;;;5104576;28;20043;-71
2022/03/31 00:56:41;;;;;;;2.08;1.20;;;19.50;50.00;;;;;;5104818;28;20040;-71
2022/03/31 00:59:10;;;;;;;2.17;1.30;;;19.40;49.80;;;;;;5087087;28;20046;-71
2022/03/31 01:01:38;;;;;;;1.98;1.30;;;19.40;49.80;;;;;;5088559;28;20047;-71
2022/03/31 01:04:05;;;;;;;3.15;1.20;;;19.40;49.80;;;;;;5088059;28;20181;-71
2022/03/31 01:06:31;;;;;;;1.77;1.10;;;19.40;49.80;;;;;;5087316;28;20484;-71
2022/03/31 01:08:57;;;;;;;3.88;1.20;;;19.40;49.80;;;;;;5087970;28;20059;-72
2022/03/31 01:11:23;;;;;;;2.92;1.30;;;19.40;49.80;;;;;;5119708;27;20415;-72
2022/03/31 01:13:49;;;;;;;1.60;1.02;;;19.40;49.80;;;;;;5122293;27;20044;-71
2022/03/31 01:16:15;;;;;;;2.75;1.20;;;19.40;49.80;;;;;;5085579;28;20039;-70
2022/03/31 01:18:41;;;;;;;2.88;1.30;;;19.40;49.80;;;;;;5088238;28;20044;-71
2022/03/31 01:21:09;;;;;;;1.73;1.10;;;19.40;50.60;;;;;;5087317;28;20032;-71
2022/03/31 01:23:36;;;;;;;1.92;1.23;;;19.40;49.70;;;;;;5087705;28;20056;-72
2022/03/31 01:26:05;;;;;;;1.95;1.25;;;19.40;49.70;;;;;;5095894;28;20048;-71
2022/03/31 01:28:31;;;;;;;2.15;1.10;;;19.40;49.70;;;;;;5085815;28;20040;-71
2022/03/31 01:30:56;;;;;;;4.28;1.30;;;19.40;49.70;;;;;;5070576;28;20036;-71
2022/03/31 01:33:22;;;;;;;1.58;0.93;;;19.40;49.70;;;;;;5069468;28;20105;-70
2022/03/31 01:35:47;;;;;;;1.60;1.10;;;19.40;49.70;;;;;;5070276;28;20054;-70
2022/03/31 01:38:13;;;;;;;2.38;1.05;;;19.40;49.70;;;;;;5086363;28;20076;-71
2022/03/31 01:40:39;;;;;;;1.60;1.02;;;19.40;49.70;;;;;;5086717;28;20036;-71
2022/03/31 01:43:05;;;;;;;1.70;0.88;;;19.40;49.70;;;;;;5088343;28;20047;-71
2022/03/31 01:45:30;;;;;;;2.40;1.10;;;19.40;49.70;;;;;;5100527;28;20075;-71
2022/03/31 01:47:56;;;;;;;1.90;0.93;;;19.30;49.60;;;;;;5087149;28;20752;-71
2022/03/31 01:50:22;;;;;;;2.38;0.90;;;19.40;49.70;;;;;;5084961;28;20036;-71
2022/03/31 01:52:48;;;;;;;1.23;0.88;;;19.30;49.60;;;;;;5087634;28;20461;-70
2022/03/31 01:55:14;;;;;;;1.95;0.90;;;19.30;49.70;;;;;;5093909;28;20040;-70
2022/03/31 01:57:40;;;;;;;1.88;1.00;;;19.30;49.60;;;;;;5073549;28;20051;-71
2022/03/31 02:00:08;;;;;;;2.45;0.95;;;19.30;49.70;;;;;;5085474;28;20095;-71
2022/03/31 02:02:34;;;;;;;;;;;19.30;49.70;;;;;;5088687;28;20079;-71
2022/03/31 02:04:59;;;;;;;2.58;0.90;;;19.30;49.60;;;;;;5086831;28;19955;-70
2022/03/31 02:07:25;;;;;;;1.90;0.90;;;19.30;49.60;;;;;;5088003;28;20059;-71
2022/03/31 02:09:51;;;;;;;2.30;1.10;;;19.30;49.60;;;;;;5086375;28;20105;-70
2022/03/31 02:12:16;;;;;;;1.33;0.70;;;19.30;49.60;;;;;;5087300;28;20062;-71
2022/03/31 02:14:42;;;;;;;1.23;0.77;;;19.30;49.70;;;;;;5087919;28;20483;-71
2022/03/31 02:17:09;;;;;;;0.90;0.77;;;19.30;49.60;;;;;;5086175;28;20044;-71
2022/03/31 02:19:35;;;;;;;1.23;0.90;;;19.30;49.60;;;;;;5087568;28;20044;-71
2022/03/31 02:22:02;;;;;;;1.25;0.93;;;19.30;49.60;;;;;;5086348;28;20039;-71
2022/03/31 02:24:29;;;;;;;1.02;0.80;;;19.30;49.70;;;;;;5087661;28;20127;-71
2022/03/31 02:26:55;;;;;;;1.17;0.85;;;19.30;49.60;;;;;;5087578;28;20113;-71
2022/03/31 02:29:21;;;;;;;1.90;0.82;;;19.20;49.60;;;;;;5085282;28;20150;-71
2022/03/31 02:31:47;;;;;;;2.22;0.95;;;19.30;49.60;;;;;;5087789;28;20111;-71
2022/03/31 02:34:14;;;;;;;1.50;0.80;;;19.20;49.60;;;;;;5085027;28;20199;-72
2022/03/31 02:36:40;;;;;;;1.17;0.70;;;19.30;49.60;;;;;;5082294;28;20056;-71
2022/03/31 02:39:07;;;;;;;1.63;0.80;;;19.20;49.60;;;;;;5081693;28;20541;-71
2022/03/31 02:41:33;;;;;;;0.95;0.68;;;19.20;49.60;;;;;;5087430;28;20048;-71
2022/03/31 02:43:59;;;;;;;1.63;0.73;;;19.20;49.60;;;;;;5086096;28;20547;-71
2022/03/31 02:46:28;;;;;;;1.48;0.90;;;19.20;49.60;;;;;;5085440;28;20496;-71
2022/03/31 02:48:55;;;;;;;2.13;0.90;;;19.20;49.60;;;;;;5099679;28;20097;-71
2022/03/31 02:51:24;;;;;;;1.02;0.70;;;19.20;49.50;;;;;;5083955;28;20051;-71
2022/03/31 02:56:35;;;;;;;1.92;0.85;;;19.30;49.50;;;;;;5078085;28;20216;-71
2022/03/31 02:59:01;;;;;;;1.98;0.80;;;19.30;49.50;;;;;;5084977;28;20109;-71
2022/03/31 03:01:27;;;;;;;2.30;0.80;;;19.20;49.50;;;;;;5085979;28;20032;-71
2022/03/31 03:03:54;;;;;;;1.58;0.70;;;19.20;49.50;;;;;;5084787;28;20119;-71
2022/03/31 03:06:19;;;;;;;1.08;0.52;;;19.30;49.50;;;;;;5091473;28;20052;-71
2022/03/31 03:08:45;;;;;;;1.25;0.70;;;19.30;49.50;;;;;;5084963;28;20055;-71
2022/03/31 03:11:11;;;;;;;0.70;0.60;;;19.30;49.50;;;;;;5085722;28;20140;-71
2022/03/31 03:13:37;;;;;;;1.85;0.75;;;19.30;49.50;;;;;;5084802;28;20403;-72
2022/03/31 03:16:08;;;;;;;1.17;0.63;;;19.30;49.40;;;;;;5084811;28;20047;-72
2022/03/31 03:18:35;;;;;;;1.23;0.60;;;19.30;49.40;;;;;;5100300;28;20429;-73
2022/03/31 03:21:01;;;;;;;1.38;0.60;;;19.30;49.50;;;;;;5085869;28;20135;-73
2022/03/31 03:23:26;;;;;;;1.67;0.70;;;19.30;49.40;;;;;;5086690;28;20113;-70
2022/03/31 03:25:52;;;;;;;2.08;0.70;;;19.30;49.40;;;;;;5089473;28;20081;-71
2022/03/31 03:28:17;;;;;;;1.17;0.70;;;19.30;49.40;;;;;;5086388;28;20055;-71
2022/03/31 03:30:43;;;;;;;1.05;0.68;;;19.30;49.30;;;;;;5084200;28;20040;-71
2022/03/31 03:33:09;;;;;;;0.98;0.65;;;19.30;49.30;;;;;;5084864;28;20039;-70
2022/03/31 03:35:35;;;;;;;0.90;0.60;;;19.30;49.30;;;;;;5118406;27;20384;-72
2022/03/31 03:38:00;;;;;;;1.10;0.60;;;19.30;49.30;;;;;;5084984;28;20365;-72
2022/03/31 03:40:26;;;;;;;0.80;0.60;;;19.30;50.00;;;;;;5085849;28;21500;-71
2022/03/31 03:42:53;;;;;;;1.20;0.55;;;19.30;49.20;;;;;;5083312;28;20113;-71
2022/03/31 03:45:19;;;;;;;0.70;0.55;;;19.30;49.30;;;;;;5086619;28;20408;-72
2022/03/31 03:47:45;;;;;;;0.82;0.70;;;19.30;49.20;;;;;;5084151;28;20176;-71
2022/03/31 03:50:11;;;;;;;1.02;0.60;;;19.30;49.20;;;;;;5085894;28;20072;-71
2022/03/31 03:52:37;;;;;;;1.20;0.70;;;19.40;49.30;;;;;;5085440;28;20039;-71
2022/03/31 03:55:03;;;;;;;0.88;0.60;;;19.40;49.30;;;;;;5098146;28;20041;-74
2022/03/31 03:57:30;;;;;;;1.15;0.70;;;19.30;49.20;;;;;;5085198;28;21588;-73
2022/03/31 03:59:56;;;;;;;1.35;0.60;;;19.30;49.20;;;;;;5084960;28;20028;-72
2022/03/31 04:02:22;;;;;;;2.15;0.73;;;19.40;49.20;;;;;;5086178;28;20105;-72
2022/03/31 04:04:47;;;;;;;1.05;0.60;;;19.30;49.20;;;;;;5083114;28;20159;-72
2022/03/31 04:07:13;;;;;;;1.20;0.65;;;19.40;49.20;;;;;;5086491;28;20059;-71
2022/03/31 04:09:39;;;;;;;0.88;0.63;;;19.40;49.20;;;;;;5082287;28;20036;-72
2022/03/31 04:12:05;;;;;;;1.00;0.60;;;19.30;49.20;;;;;;5084562;28;20085;-72
2022/03/31 04:14:30;;;;;;;0.70;0.60;;;19.40;49.20;;;;;;5083500;28;20044;-71
2022/03/31 04:16:56;;;;;;;0.93;0.63;;;19.30;49.10;;;;;;5085584;28;20039;-71
2022/03/31 04:19:22;;;;;;;1.15;0.65;;;19.40;49.30;;;;;;5085892;28;20047;-71
2022/03/31 04:21:48;;;;;;;0.82;0.50;;;19.30;49.10;;;;;;5067536;28;20036;-71
2022/03/31 04:24:13;;;;;;;1.52;0.70;;;19.40;49.20;;;;;;5084616;28;20101;-70
2022/03/31 04:26:39;;;;;;;0.93;0.52;;;19.30;49.10;;;;;;5083125;28;20051;-71
2022/03/31 04:29:08;;;;;;;1.00;0.50;;;19.30;49.20;;;;;;5084064;28;20399;-72
2022/03/31 04:31:40;;;;;;;0.70;0.50;;;19.30;49.20;;;;;;5083332;28;20113;-71
2022/03/31 04:34:08;;;;;;;1.10;0.60;;;19.40;49.20;;;;;;5083454;28;20590;-72
2022/03/31 04:36:34;;;;;;;0.83;0.63;;;19.40;49.20;;;;;;5086076;28;20044;-72
2022/03/31 04:38:59;;;;;;;1.20;0.70;;;19.40;49.20;;;;;;5082879;28;20649;-71
2022/03/31 04:41:25;;;;;;;0.75;0.40;;;19.40;49.20;;;;;;5085768;28;21071;-71
2022/03/31 04:43:51;;;;;;;0.75;0.50;;;19.40;49.10;;;;;;5084348;28;20495;-71
2022/03/31 04:46:18;;;;;;;1.00;0.50;;;19.40;49.20;;;;;;5101342;28;20459;-71
2022/03/31 04:48:44;;;;;;;0.52;0.50;;;19.40;49.10;;;;;;5082915;28;20040;-71
2022/03/31 04:51:09;;;;;;;0.70;0.40;;;19.30;49.10;;;;;;5109943;28;20050;-71
2022/03/31 04:53:35;;;;;;;1.85;0.50;;;19.40;50.00;;;;;;5084865;28;20039;-72
2022/03/31 04:56:01;;;;;;;0.60;0.50;;;19.40;49.20;;;;;;5083919;28;20530;-72
2022/03/31 04:58:26;;;;;;;1.08;0.57;;;19.40;49.20;;;;;;5084713;28;20102;-71
2022/03/31 05:00:52;;;;;;;0.50;0.40;;;19.40;49.20;;;;;;5082655;28;20563;-71
2022/03/31 05:03:18;;;;;;;0.55;0.50;;;19.40;49.20;;;;;;5085079;28;20415;-71
2022/03/31 05:05:43;;;;;;;1.50;0.65;;;19.40;49.20;;;;;;5083685;28;20052;-71
2022/03/31 05:08:10;;;;;;;1.17;0.50;;;19.40;49.20;;;;;;5084523;28;20055;-71
2022/03/31 05:10:35;;;;;;;0.55;0.50;;;19.40;49.20;;;;;;5085916;28;20090;-72
2022/03/31 05:13:01;;;;;;;0.63;0.60;;;19.30;49.10;;;;;;5083843;28;20036;-72
2022/03/31 05:15:26;;;;;;;0.60;0.50;;;19.30;49.10;;;;;;5084305;28;20047;-71
2022/03/31 05:17:52;;;;;;;0.98;0.60;;;19.40;49.20;;;;;;5082071;28;20043;-70
2022/03/31 05:20:18;;;;;;;0.35;0.30;;;19.40;49.20;;;;;;5084077;28;20098;-71
2022/03/31 05:22:43;;;;;;;1.75;0.73;;;19.40;49.20;;;;;;5081493;28;20064;-72
2022/03/31 05:25:10;;;;;;;0.43;0.32;;;19.40;49.20;;;;;;5089495;28;20118;-71
2022/03/31 05:27:47;;;;;;;1.05;0.40;;;19.30;49.10;;;;;;5086214;28;20076;-72
2022/03/31 05:30:14;;;;;;;0.93;0.30;;;19.40;49.10;;;;;;5088128;28;20076;-72
2022/03/31 05:32:40;;;;;;;0.75;0.50;;;19.40;49.10;;;;;;5121191;27;20126;-71
2022/03/31 05:35:07;;;;;;;0.40;0.40;;;19.40;49.10;;;;;;5087362;28;20493;-73
2022/03/31 05:37:33;;;;;;;0.60;0.50;;;19.30;49.10;;;;;;5086174;28;20054;-71
2022/03/31 05:40:04;;;;;;;0.55;0.40;;;19.40;49.20;;;;;;5078343;28;20067;-72
2022/03/31 05:42:33;;;;;;;3.10;0.60;;;19.40;49.20;;;;;;5083343;28;21278;-70
2022/03/31 05:45:03;;;;;;;2.33;0.50;;;19.40;49.10;;;;;;5087471;28;20077;-69
2022/03/31 05:47:29;;;;;;;0.60;0.50;;;19.40;49.20;;;;;;5077979;28;20044;-69
2022/03/31 05:49:55;;;;;;;0.55;0.40;;;19.40;49.20;;;;;;5086892;28;20063;-69
2022/03/31 05:52:21;;;;;;;0.47;0.40;;;19.40;49.30;;;;;;5086772;28;20046;-70
2022/03/31 05:54:48;;;;;;;0.80;0.50;;;19.40;49.40;;;;;;5086907;28;20581;-68
2022/03/31 05:57:14;;;;;;;2.35;0.30;;;19.40;49.40;;;;;;5085796;28;20039;-70
2022/03/31 05:59:40;;;;;;;0.50;0.40;;;19.40;49.50;;;;;;5085000;28;20168;-69
2022/03/31 06:02:06;;;;;;;1.02;0.50;;;19.40;49.50;;;;;;5086521;28;20142;-71
2022/03/31 06:04:32;;;;;;;0.55;0.40;;;19.40;49.60;;;;;;5069444;28;20097;-72
2022/03/31 06:06:57;;;;;;;1.75;0.50;;;19.40;49.50;;;;;;5085831;28;20064;-70
2022/03/31 06:09:23;;;;;;;0.52;0.40;;;19.40;49.50;;;;;;5086323;28;20051;-71
2022/03/31 06:11:48;;;;;;;2.67;0.45;;;19.40;49.70;;;;;;5088160;28;20036;-71
2022/03/31 06:14:14;;;;;;;1.00;0.50;;;19.40;49.70;;;;;;5069085;28;20056;-72
2022/03/31 06:16:40;;;;;;;1.65;0.63;;;19.40;49.70;;;;;;5069511;28;20385;-72
2022/03/31 06:19:08;;;;;;;0.90;0.50;;;19.40;49.80;;;;;;5083619;28;20134;-72
2022/03/31 06:21:34;;;;;;;2.70;0.90;;;19.40;49.80;;;;;;5101418;28;20131;-70
2022/03/31 06:24:00;;;;;;;1.27;0.50;;;19.40;49.80;;;;;;5081358;28;20083;-73
2022/03/31 06:26:26;;;;;;;2.15;0.38;;;19.40;49.80;;;;;;5086145;28;20764;-73
2022/03/31 06:28:51;;;;;;;1.73;0.47;;;19.40;49.70;;;;;;5083018;28;20040;-72
2022/03/31 06:31:17;;;;;;;5.18;0.60;;;19.40;49.70;;;;;;5069822;28;20040;-71
2022/03/31 06:33:43;;;;;;;2.38;0.43;;;19.40;49.80;;;;;;5080701;28;20136;-73
2022/03/31 06:36:08;;;;;;;1.20;0.43;;;19.40;50.00;;;;;;5082806;28;20044;-73
2022/03/31 06:38:34;;;;;;;0.90;0.40;;;19.40;50.10;;;;;;5083161;28;20456;-72
2022/03/31 06:41:06;;;;;;;1.05;0.52;;;19.40;50.30;;;;;;5117701;27;20039;-72
2022/03/31 06:43:32;;;;;;;0.85;0.40;;;19.50;50.40;;;;;;5061416;28;20047;-71
2022/03/31 06:45:58;;;;;;;4.85;0.65;;;19.40;50.50;;;;;;5083149;28;20051;-70
2022/03/31 06:48:25;;;;;;;2.70;0.45;;;19.50;50.50;;;;;;5081438;28;20044;-71
2022/03/31 06:50:51;;;;;;;2.00;0.50;;;19.50;50.50;;;;;;5084990;28;20038;-72
2022/03/31 06:53:18;;;;;;;2.15;0.50;;;19.50;50.50;;;;;;5079286;28;20036;-73
2022/03/31 06:55:44;;;;;;;1.15;0.40;;;19.50;50.60;;;;;;5078356;28;20044;-72
2022/03/31 06:58:10;;;;;;;1.33;0.50;;;19.50;50.60;;;;;;5082674;28;20756;-71
2022/03/31 07:00:36;;;;;;;4.35;0.60;;;19.50;50.70;;;;;;5085390;28;20048;-72
2022/03/31 07:03:01;;;;;;;3.42;0.60;;;19.50;50.70;;;;;;5085613;28;20527;-72
2022/03/31 07:05:27;;;;;;;1.25;0.40;;;19.60;50.70;;;;;;5085997;28;20129;-72
2022/03/31 07:07:52;;;;;;;6.07;0.52;;;19.60;50.70;;;;;;5085189;28;20044;-71
2022/03/31 07:10:18;;;;;;;2.47;0.65;;;19.60;50.70;;;;;;5083500;28;20071;-71
2022/03/31 07:12:44;;;;;;;1.25;0.40;;;19.60;50.70;;;;;;5085362;28;20168;-71
2022/03/31 07:15:10;;;;;;;4.32;0.60;;;19.60;50.70;;;;;;5085443;28;20051;-71
2022/03/31 07:17:36;;;;;;;2.30;0.40;;;19.60;50.80;;;;;;5085591;28;20093;-70
2022/03/31 07:20:04;;;;;;;2.13;0.40;;;19.60;50.80;;;;;;5085198;28;20032;-72
2022/03/31 07:22:30;;;;;;;1.55;0.50;;;19.60;50.80;;;;;;5084503;28;20047;-74
2022/03/31 07:24:56;;;;;;;3.90;0.70;;;19.60;50.70;;;;;;5079984;28;20042;-74
2022/03/31 07:27:21;;;;;;;3.17;0.68;;;19.60;50.80;;;;;;5084696;28;20035;-74
2022/03/31 07:29:47;;;;;;;0.40;0.30;;;19.60;50.80;;;;;;5065266;28;20044;-73
2022/03/31 07:32:12;;;;;;;1.20;0.50;;;19.60;50.90;;;;;;5085239;28;20040;-72
2022/03/31 07:34:38;;;;;;;1.70;0.63;;;19.70;51.00;;;;;;5085151;28;20058;-72
2022/03/31 07:37:05;;;;;;;2.38;0.50;;;19.70;51.10;;;;;;5061524;28;20044;-70
2022/03/31 07:39:31;;;;;;;0.93;0.43;;;19.70;51.10;;;;;;5083206;28;20698;-74
2022/03/31 07:41:57;;;;;;;1.88;0.40;;;19.70;51.10;;;;;;5065073;28;20082;-72
2022/03/31 07:44:22;;;;;;;3.78;0.43;;;19.70;50.90;;;;;;5084623;28;20047;-73
2022/03/31 07:46:51;;;;;;;2.95;0.50;;;19.70;50.90;;;;;;5081485;28;20369;-71
2022/03/31 07:49:17;;;;;;;1.63;0.52;;;19.60;50.90;;;;;;5075883;28;20508;-72
2022/03/31 07:51:43;;;;;;;2.65;0.60;;;19.70;51.20;;;;;;5119040;27;20032;-71
2022/03/31 07:54:09;;;;;;;1.52;0.60;;;19.70;51.20;;;;;;5082775;28;20047;-71
2022/03/31 07:56:35;;;;;;;1.55;0.50;;;19.70;51.20;;;;;;5085500;28;20036;-73
2022/03/31 07:59:01;;;;;;;2.03;0.50;;;19.70;51.10;;;;;;5082754;28;20066;-72
2022/03/31 08:01:27;;;;;;;1.00;0.40;;;19.70;50.90;;;;;;5085597;28;20538;-72
2022/03/31 08:03:53;;;;;;;0.60;0.40;;;19.70;50.80;;;;;;5083789;28;20743;-72
2022/03/31 08:06:19;;;;;;;4.43;0.70;;;19.70;51.50;;;;;;5083160;28;20056;-74
2022/03/31 08:08:45;;;;;;;3.88;0.60;;;19.70;50.70;;;;;;5085491;28;20123;-70
2022/03/31 08:11:10;;;;;;;1.05;0.50;;;19.70;50.70;;;;;;5085263;28;20135;-73
2022/03/31 08:13:40;;;;;;;3.65;0.70;;;19.70;50.90;;;;;;5083716;28;20046;-73
2022/03/31 08:16:06;;;;;;;2.13;0.40;;;19.70;51.10;;;;;;5084586;28;20450;-71
2022/03/31 08:18:33;;;;;;;2.70;0.57;;;19.70;51.10;;;;;;5085783;28;20056;-72
2022/03/31 08:20:59;;;;;;;0.38;0.35;;;19.70;51.20;;;;;;5083884;28;20370;-73
2022/03/31 08:23:26;;;;;;;4.95;0.70;;;19.70;51.10;;;;;;5117848;27;20046;-73
2022/03/31 08:25:53;;;;;;;3.13;0.50;;;19.80;51.10;;;;;;5097721;28;20058;-73
2022/03/31 08:28:18;;;;;;;1.05;0.43;;;19.80;51.10;;;;;;5082797;28;20537;-74
2022/03/31 08:30:44;;;;;;;5.45;0.50;;;19.80;51.10;;;;;;5084743;28;20032;-73
2022/03/31 08:33:10;;;;;;;2.72;0.60;;;19.70;51.00;;;;;;5082291;28;20040;-71
2022/03/31 08:35:36;;;;;;;1.13;0.50;;;19.80;51.00;;;;;;5083895;28;20074;-72
2022/03/31 08:38:01;;;;;;;2.15;0.57;;;19.80;51.00;;;;;;5084173;28;20110;-71
2022/03/31 08:40:27;;;;;;;2.80;0.60;;;19.80;50.90;;;;;;5079969;28;20129;-74
2022/03/31 08:42:54;;;;;;;2.00;0.60;;;19.80;51.00;;;;;;5076143;28;20113;-71
2022/03/31 08:45:20;;;;;;;3.67;0.80;;;19.80;51.00;;;;;;5079981;28;20229;-71
2022/03/31 08:47:49;;;;;;;1.52;0.57;;;19.80;50.90;;;;;;5081140;28;20048;-71
2022/03/31 08:50:17;;;;;;;1.67;0.50;;;19.80;50.90;;;;;;5080695;28;20551;-71
2022/03/31 08:52:43;;;;;;;1.08;0.60;;;19.80;50.90;;;;;;5082851;28;20040;-73
2022/03/31 08:55:10;;;;;;;0.88;0.63;;;19.80;50.90;;;;;;5076327;28;20102;-73
2022/03/31 08:57:54;;;;;;;2.38;0.50;;;19.80;50.90;;;;;;5115573;27;20044;-74
2022/03/31 09:00:22;;;;;;;3.88;0.60;;;19.80;50.70;;;;;;5117917;27;20388;-74
2022/03/31 09:03:03;;;;;;;3.38;1.25;;;19.80;50.90;;;;;;5084962;28;20051;-73
2022/03/31 09:05:41;;;;;;;3.42;0.80;;;19.80;50.90;;;;;;5069234;28;20320;-72
2022/03/31 09:08:10;;;;;;;3.58;0.60;;;19.80;50.90;;;;;;5086189;28;20051;-74
2022/03/31 09:10:38;;;;;;;5.55;0.70;;;19.80;51.00;;;;;;5086494;28;20072;-73
2022/03/31 09:13:22;;;;;;;1.63;0.60;;;19.80;51.00;;;;;;5068353;28;20161;-73
2022/03/31 09:15:50;;;;;;;1.58;0.60;;;19.80;51.10;;;;;;5085285;28;20126;-73
2022/03/31 09:18:19;;;;;;;1.38;0.63;;;19.80;51.10;;;;;;5086466;28;20055;-73
2022/03/31 09:20:46;;;;;;;2.33;0.60;;;19.80;51.10;;;;;;5066064;28;20078;-73
2022/03/31 09:23:21;;;;;;;3.15;0.77;;;19.80;51.10;;;;;;5083812;28;20251;-73
2022/03/31 09:25:47;;;;;;;4.10;0.50;;;19.80;51.10;;;;;;5084403;28;20044;-71
2022/03/31 09:28:16;;;;;;;2.17;0.60;;;19.80;51.10;;;;;;5084849;28;20496;-72
2022/03/31 09:30:46;;;;;;;1.90;0.50;;;19.80;51.20;;;;;;5102236;28;20032;-73
2022/03/31 09:33:23;;;;;;;3.10;0.52;;;19.80;51.10;;;;;;5061934;28;20039;-71
2022/03/31 09:35:56;;;;;;;3.78;0.60;;;19.80;51.10;;;;;;5080896;28;20050;-71
2022/03/31 09:38:21;;;;;;;1.70;0.77;;;19.80;51.00;;;;;;5114195;27;20076;-72
2022/03/31 09:40:47;;;;;;;7.85;0.88;;;19.80;51.00;;;;;;5084054;28;20102;-72
2022/03/31 09:43:12;;;;;;;3.72;1.20;;;19.80;50.90;;;;;;5085316;28;20040;-72
2022/03/31 09:45:40;;;;;;;3.88;0.95;;;19.80;50.90;;;;;;5088312;28;20032;-77
2022/03/31 09:48:20;;;;;;;3.33;0.90;;;19.80;50.90;;;;;;5085389;28;20409;-75
2022/03/31 09:50:47;;;;;;;5.60;0.80;;;19.80;50.70;;;;;;5101740;28;20282;-79
2022/03/31 09:53:13;;;;;;;4.05;0.77;;;19.80;50.70;;;;;;5085259;28;20040;-77
2022/03/31 09:55:44;;;;;;;6.57;0.73;;;19.70;50.60;;;;;;5080524;28;20036;-74
2022/03/31 09:58:17;;;;;;;4.50;0.77;;;19.80;50.40;;;;;;5115606;27;20101;-79
2022/03/31 10:00:43;;;;;;;4.68;1.35;;;19.70;50.20;;;;;;5099880;28;20037;-75
2022/03/31 10:03:15;;;;;;;3.78;1.23;;;19.70;50.10;;;;;;5085049;28;20404;-75
2022/03/31 10:05:45;;;;;;;5.68;0.90;;;19.70;49.90;;;;;;5087830;28;20087;-75
2022/03/31 10:08:16;;;;;;;2.22;0.85;;;19.70;49.80;;;;;;5076190;28;20159;-73
2022/03/31 10:10:43;;;;;;;9.73;1.08;;;19.70;49.60;;;;;;5086881;28;20605;-72
2022/03/31 10:13:20;;;;;;;8.27;1.10;;;19.70;49.50;;;;;;5084103;28;20059;-73
2022/03/31 10:15:46;;;;;;;6.38;0.90;;;19.70;49.40;;;;;;5085574;28;20036;-72
2022/03/31 10:18:14;;;;;;;2.25;0.88;;;19.60;49.40;;;;;;5085799;28;20518;-73
2022/03/31 10:20:39;;;;;;;3.13;1.10;;;19.60;49.40;;;;;;5087081;28;20036;-74
2022/03/31 10:25:50;;;;;;;7.05;1.42;;;19.60;49.30;;;;;;5080933;28;20055;-73
2022/03/31 10:28:18;;;;;;;3.58;1.00;;;19.60;49.30;;;;;;5085872;28;20412;-72
2022/03/31 10:30:58;;;;;;;3.10;1.00;;;19.60;49.30;;;;;;5085899;28;20082;-73
2022/03/31 10:33:29;;;;;;;2.78;0.95;;;19.60;49.30;;;;;;5087504;28;20087;-72
2022/03/31 10:36:03;;;;;;;1.90;1.00;;;19.60;49.30;;;;;;5086732;28;20048;-71
2022/03/31 10:38:32;;;;;;;3.75;1.20;;;19.60;49.30;;;;;;5084973;28;20056;-72
2022/03/31 10:41:12;;;;;;;2.35;1.08;;;19.60;49.40;;;;;;5103924;28;20415;-72
2022/03/31 10:43:46;;;;;;;2.50;1.17;;;19.60;49.30;;;;;;5085240;28;20054;-73
2022/03/31 10:46:17;;;;;;;7.00;1.48;;;19.60;49.30;;;;;;5086230;28;20048;-73
2022/03/31 10:48:51;;;;;;;6.05;1.23;;;19.60;49.30;;;;;;5086872;28;20052;-74
2022/03/31 10:51:17;;;;;;;4.03;1.20;;;19.60;49.30;;;;;;5087229;28;20514;-73
2022/03/31 10:53:49;;;;;;;1.98;1.10;;;19.60;49.30;;;;;;5103592;28;20040;-73
2022/03/31 10:56:24;;;;;;;3.90;1.20;;;19.60;49.30;;;;;;5085182;28;20063;-73
2022/03/31 10:58:52;;;;;;;4.35;1.00;;;19.60;49.30;;;;;;5085721;28;20036;-74
2022/03/31 11:01:20;;;;;;;3.22;1.27;;;19.60;49.30;;;;;;5085237;28;20024;-73
2022/03/31 11:03:47;;;;;;;;;;;19.60;49.30;;;;;;5085834;28;20072;-73
2022/03/31 11:06:13;;;;;;;4.07;1.40;;;19.60;49.20;;;;;;5102654;28;19930;-73
2022/03/31 11:08:44;;;;;;;3.25;1.50;;;19.60;49.30;;;;;;5084506;28;20052;-73
2022/03/31 11:11:19;;;;;;;3.22;1.33;;;19.60;49.30;;;;;;5084335;28;20549;-73
2022/03/31 11:13:45;;;;;;;7.13;1.60;;;19.60;49.20;;;;;;5068668;28;20041;-72
2022/03/31 11:16:11;;;;;;;6.30;1.55;;;19.60;49.20;;;;;;5086332;28;20036;-72
2022/03/31 11:18:36;;;;;;;4.25;1.60;;;19.70;49.20;;;;;;5086084;28;20075;-72
2022/03/31 11:21:03;;;;;;;2.63;1.60;;;19.70;49.30;;;;;;5119580;27;20334;-71
2022/03/31 11:23:30;;;;;;;4.38;1.70;;;19.70;49.20;;;;;;5087164;28;20047;-71
2022/03/31 11:25:57;;;;;;;4.50;1.60;;;19.70;49.30;;;;;;5084704;28;20044;-72
2022/03/31 11:28:27;;;;;;;4.47;2.17;;;19.70;49.20;;;;;;5085075;28;20044;-73
2022/03/31 11:30:54;;;;;;;4.30;1.70;;;19.70;49.20;;;;;;5084468;28;20059;-72
2022/03/31 11:33:19;;;;;;;3.95;2.17;;;19.70;49.20;;;;;;5086427;28;20343;-72
2022/03/31 11:35:52;;;;;;;4.18;1.80;;;19.60;49.20;;;;;;5101065;28;20335;-72
2022/03/31 11:38:18;;;;;;;4.30;2.03;;;19.70;49.20;;;;;;5085672;28;20094;-71
2022/03/31 11:40:49;;;;;;;5.03;1.80;;;19.70;49.20;;;;;;5085213;28;20055;-72
2022/03/31 11:43:19;;;;;;;3.65;1.70;;;19.70;49.10;;;;;;5084270;28;20066;-72
2022/03/31 11:45:48;;;;;;;5.80;1.63;;;19.70;49.10;;;;;;5085267;28;20627;-72
2022/03/31 11:48:19;;;;;;;5.72;2.00;;;19.70;49.10;;;;;;5083560;28;20060;-71
2022/03/31 11:50:54;;;;;;;6.43;1.80;;;19.70;49.10;;;;;;5087106;28;20081;-73
2022/03/31 11:53:31;;;;;;;3.70;1.67;;;19.70;49.10;;;;;;5101873;28;20051;-72
2022/03/31 11:56:06;;;;;;;3.97;1.90;;;19.70;49.10;;;;;;5085045;28;20527;-72
2022/03/31 11:58:56;;;;;;;3.42;1.92;;;19.70;49.10;;;;;;5102209;28;20151;-72
2022/03/31 12:01:34;;;;;;;4.80;1.80;;;19.70;49.00;;;;;;5082996;28;20570;-74
2022/03/31 12:03:59;;;;;;;;;;;19.70;49.10;;;;;;5086968;28;20131;-74
2022/03/31 12:06:26;;;;;;;4.60;1.80;;;19.70;49.10;;;;;;5101155;28;20006;-72
2022/03/31 12:08:57;;;;;;;3.60;1.95;;;19.70;49.10;;;;;;5083310;28;20044;-72
2022/03/31 12:11:24;;;;;;;3.45;1.77;;;19.60;49.00;;;;;;5084399;28;20071;-74
2022/03/31 12:13:57;;;;;;;3.22;1.73;;;19.70;49.10;;;;;;5100431;28;20040;-73
2022/03/31 12:16:25;;;;;;;3.70;1.70;;;19.70;49.10;;;;;;5086295;28;20047;-74
2022/03/31 12:18:58;;;;;;;3.35;1.90;;;19.60;49.00;;;;;;5083303;28;20036;-73
2022/03/31 12:21:28;;;;;;;2.70;1.65;;;19.60;49.00;;;;;;5118792;27;20044;-74
2022/03/31 12:24:01;;;;;;;2.30;1.70;;;19.60;49.00;;;;;;5106879;27;20498;-73
2022/03/31 12:26:26;;;;;;;4.03;1.60;;;19.60;49.00;;;;;;5085092;28;20048;-73
2022/03/31 12:28:52;;;;;;;5.40;1.95;;;19.60;49.10;;;;;;5084460;28;20047;-72
2022/03/31 12:31:22;;;;;;;2.63;1.90;;;19.60;49.00;;;;;;5082200;28;20055;-73
2022/03/31 12:33:49;;;;;;;5.00;1.73;;;19.60;49.00;;;;;;5065012;28;20048;-72
2022/03/31 12:36:14;;;;;;;2.45;1.73;;;19.60;49.00;;;;;;5063153;28;20041;-74
2022/03/31 12:38:45;;;;;;;4.38;1.90;;;19.60;49.00;;;;;;5097862;28;20044;-73
2022/03/31 12:41:21;;;;;;;3.95;1.65;;;19.60;48.90;;;;;;5064168;28;20044;-73
2022/03/31 12:43:58;;;;;;;3.45;1.67;;;19.60;48.90;;;;;;5084727;28;20048;-73
2022/03/31 12:46:28;;;;;;;2.87;1.70;;;19.60;48.90;;;;;;5101174;28;20044;-74
2022/03/31 12:49:02;;;;;;;3.72;1.70;;;19.60;48.90;;;;;;5084210;28;20052;-73
2022/03/31 12:51:28;;;;;;;3.05;1.80;;;19.60;48.90;;;;;;5118789;28;20081;-73
2022/03/31 12:53:54;;;;;;;3.15;1.63;;;19.60;48.80;;;;;;5084281;28;20116;-73
2022/03/31 12:56:28;;;;;;;2.60;1.95;;;19.70;48.90;;;;;;5085148;28;20098;-72
2022/03/31 12:58:55;;;;;;;5.43;1.90;;;19.60;48.80;;;;;;5085061;28;20261;-72
2022/03/31 13:01:25;;;;;;;2.88;1.63;;;19.70;49.20;;;;;;5083746;28;20048;-72
2022/03/31 13:03:52;;;;;;;2.88;1.52;;;19.70;48.80;;;;;;5085817;28;20048;-73
2022/03/31 13:06:18;;;;;;;2.75;1.77;;;19.70;48.80;;;;;;5049167;28;20689;-72
2022/03/31 13:08:45;;;;;;;3.83;1.70;;;19.60;48.80;;;;;;5085628;28;20047;-72